createdAt,value
2022-08-11T00:01:22.366Z,101833.77
2022-08-11T00:04:01.050Z,101834.13
2022-08-11T00:06:34.016Z,101835.76
2022-08-11T00:09:02.287Z,101833.27
2022-08-11T00:11:38.371Z,101837.82
2022-08-11T00:14:06.684Z,101833.67
2022-08-11T00:16:37.434Z,101836.58
2022-08-11T00:19:05.210Z,101825.76
2022-08-11T00:22:05.193Z,101830.73
2022-08-11T00:24:52.525Z,101823.63
2022-08-11T00:27:21.603Z,101830.20
2022-08-11T00:29:58.732Z,101826.48
2022-08-11T00:32:29.797Z,101823.96
2022-08-11T00:35:50.029Z,101818.14
2022-08-11T00:37:53.909Z,101816.93
2022-08-11T00:41:03.517Z,101820.20
2022-08-11T00:43:55.412Z,101827.65
2022-08-11T00:46:29.600Z,101829.32
2022-08-11T00:49:27.058Z,101818.07
2022-08-11T00:52:10.474Z,101820.13
2022-08-11T00:54:40.931Z,101812.22
2022-08-11T00:57:39.463Z,101815.00
2022-08-11T01:00:20.476Z,101811.27
2022-08-11T01:03:01.500Z,101812.09
2022-08-11T01:05:47.475Z,101806.70
2022-08-11T01:08:38.617Z,101813.69
2022-08-11T01:11:33.783Z,101817.81
2022-08-11T01:14:39.451Z,101814.48
2022-08-11T01:17:31.717Z,101807.35
2022-08-11T01:20:46.576Z,101806.47
2022-08-11T01:23:47.051Z,101817.19
2022-08-11T01:26:53.028Z,101807.58
2022-08-11T01:29:54.750Z,101808.36
2022-08-11T01:32:58.273Z,101810.75
2022-08-11T01:35:45.936Z,101812.87
2022-08-11T01:38:35.345Z,101811.99
2022-08-11T01:41:53.836Z,101818.20
2022-08-11T01:44:39.553Z,101825.98
2022-08-11T01:47:54.307Z,101820.49
2022-08-11T01:50:43.741Z,101818.37
2022-08-11T01:53:46.030Z,101812.13
2022-08-11T01:56:25.496Z,101814.64
2022-08-11T01:59:21.376Z,101815.39
2022-08-11T02:02:11.090Z,101824.16
2022-08-11T02:04:57.393Z,101817.42
2022-08-11T02:07:56.159Z,101821.08
2022-08-11T02:10:42.062Z,101810.26
2022-08-11T02:13:30.290Z,101816.44
2022-08-11T02:16:49.892Z,101825.46
2022-08-11T02:19:58.302Z,101824.97
2022-08-11T02:22:55.779Z,101825.30
2022-08-11T02:25:45.637Z,101826.02
2022-08-11T02:28:30.803Z,101821.80
2022-08-11T02:32:15.424Z,101818.79
2022-08-11T02:35:00.270Z,101818.70
2022-08-11T02:37:58.241Z,101817.35
2022-08-11T02:40:46.062Z,101817.71
2022-08-11T02:43:29.121Z,101820.30
2022-08-11T02:46:21.786Z,101816.14
2022-08-11T02:49:59.955Z,101818.23
2022-08-11T02:53:00.173Z,101825.27
2022-08-11T02:55:55.692Z,101810.68
2022-08-11T02:58:30.706Z,101812.32
2022-08-11T03:01:07.434Z,101810.68
2022-08-11T03:04:17.582Z,101811.53
2022-08-11T03:07:28.811Z,101806.14
2022-08-11T03:10:20.760Z,101811.40
2022-08-11T03:13:32.733Z,101807.74
2022-08-11T03:16:37.961Z,101810.62
2022-08-11T03:19:46.309Z,101806.89
2022-08-11T03:22:47.725Z,101811.40
2022-08-11T03:25:46.124Z,101807.61
2022-08-11T03:28:23.080Z,101807.61
2022-08-11T03:31:20.318Z,101810.00
2022-08-11T03:34:24.848Z,101812.41
2022-08-11T03:37:16.665Z,101813.98
2022-08-11T03:40:08.579Z,101818.04
2022-08-11T03:42:54.111Z,101813.79
2022-08-11T03:45:44.157Z,101821.21
2022-08-11T03:48:21.297Z,101821.96
2022-08-11T03:50:59.601Z,101823.92
2022-08-11T03:54:07.908Z,101813.49
2022-08-11T03:56:43.894Z,101813.01
2022-08-11T03:59:23.829Z,101822.06
2022-08-11T04:02:25.544Z,101814.45
2022-08-11T04:05:29.791Z,101819.28
2022-08-11T04:08:34.377Z,101817.05
2022-08-11T04:11:26.569Z,101822.72
2022-08-11T04:14:50.949Z,101816.30
2022-08-11T04:17:22.969Z,101821.27
2022-08-11T04:20:17.353Z,101820.10
2022-08-11T04:23:08.849Z,101823.23
2022-08-11T04:25:58.953Z,101821.87
2022-08-11T04:28:31.502Z,101821.87
2022-08-11T04:31:44.440Z,101822.62
2022-08-11T04:34:24.760Z,101826.73
2022-08-11T04:37:33.076Z,101824.12
2022-08-11T04:40:27.166Z,101819.80
2022-08-11T04:43:32.845Z,101837.43
2022-08-11T04:46:15.829Z,101835.30
2022-08-11T04:49:33.788Z,101835.50
2022-08-11T04:52:57.978Z,101836.45
2022-08-11T04:55:59.687Z,101835.83
2022-08-11T04:59:20.605Z,101833.90
2022-08-11T05:02:16.977Z,101833.15
2022-08-11T05:05:34.787Z,101840.77
2022-08-11T05:08:24.016Z,101839.39
2022-08-11T05:11:16.560Z,101847.40
2022-08-11T05:14:07.952Z,101847.07
2022-08-11T05:17:01.879Z,101844.10
2022-08-11T05:19:58.973Z,101844.10
2022-08-11T05:22:49.537Z,101848.28
2022-08-11T05:26:44.598Z,101853.32
2022-08-11T05:29:19.768Z,101855.38
2022-08-11T05:32:11.152Z,101858.35
2022-08-11T05:34:56.161Z,101857.24
2022-08-11T05:37:39.644Z,101851.23
2022-08-11T05:40:32.952Z,101856.36
2022-08-11T05:43:24.839Z,101845.70
2022-08-11T05:46:19.305Z,101862.44
2022-08-11T05:49:05.766Z,101856.00
2022-08-11T05:52:05.498Z,101851.55
2022-08-11T05:54:59.104Z,101861.69
2022-08-11T05:57:48.807Z,101845.80
2022-08-11T06:00:19.837Z,101857.08
2022-08-11T06:03:01.978Z,101855.90
2022-08-11T06:05:38.453Z,101858.59
2022-08-11T06:08:16.728Z,101860.41
2022-08-11T06:10:45.483Z,101859.70
2022-08-11T06:13:16.817Z,101862.67
2022-08-11T06:15:49.328Z,101860.02
2022-08-11T06:18:17.179Z,101854.04
2022-08-11T06:20:53.495Z,101863.39
2022-08-11T06:23:24.685Z,101853.97
2022-08-11T06:25:57.616Z,101859.01
2022-08-11T06:28:32.879Z,101852.89
2022-08-11T06:31:00.734Z,101847.17
2022-08-11T06:33:52.310Z,101857.24
2022-08-11T06:36:44.072Z,101854.85
2022-08-11T06:39:45.835Z,101859.99
2022-08-11T06:42:35.655Z,101855.22
2022-08-11T06:45:09.484Z,101854.85
2022-08-11T06:47:43.638Z,101845.70
2022-08-11T06:50:36.972Z,101854.76
2022-08-11T06:53:06.605Z,101857.30
2022-08-11T06:55:58.136Z,101865.84
2022-08-11T06:58:50.809Z,101866.30
2022-08-11T07:01:39.210Z,101864.96
2022-08-11T07:04:10.734Z,101859.99
2022-08-11T07:07:14.356Z,101855.70
2022-08-11T07:10:29.874Z,101846.65
2022-08-11T07:13:45.145Z,101855.48
2022-08-11T07:16:14.075Z,101846.06
2022-08-11T07:19:06.307Z,101859.79
2022-08-11T07:22:02.390Z,101861.36
2022-08-11T07:25:03.293Z,101858.55
2022-08-11T07:28:02.343Z,101861.69
2022-08-11T07:30:30.573Z,101861.52
2022-08-11T07:33:02.081Z,101861.69
2022-08-11T07:35:35.517Z,101853.02
2022-08-11T07:38:25.258Z,101855.15
2022-08-11T07:40:55.903Z,101865.19
2022-08-11T07:43:28.726Z,101858.23
2022-08-11T07:46:16.948Z,101861.98
2022-08-11T07:49:03.350Z,101852.17
2022-08-11T07:51:58.466Z,101849.46
2022-08-11T07:54:28.825Z,101863.68
2022-08-11T07:57:09.536Z,101859.20
2022-08-11T08:00:14.023Z,101861.30
2022-08-11T08:03:03.330Z,101859.34
2022-08-11T08:05:49.868Z,101848.19
2022-08-11T08:08:36.639Z,101852.89
2022-08-11T08:11:27.078Z,101855.48
2022-08-11T08:14:14.594Z,101849.33
2022-08-11T08:17:01.855Z,101859.79
2022-08-11T08:19:29.876Z,101855.28
2022-08-11T08:22:11.168Z,101850.77
2022-08-11T08:24:48.202Z,101854.98
2022-08-11T08:27:16.214Z,101846.65
2022-08-11T08:30:05.657Z,101855.45
2022-08-11T08:32:33.591Z,101848.41
2022-08-11T08:35:06.291Z,101843.87
2022-08-11T08:37:45.685Z,101848.45
2022-08-11T08:40:20.259Z,101845.11
2022-08-11T08:42:54.904Z,101851.81
2022-08-11T08:45:23.176Z,101856.42
2022-08-11T08:48:02.374Z,101857.66
2022-08-11T08:51:02.911Z,101848.94
2022-08-11T08:53:34.115Z,101848.12
2022-08-11T08:56:08.239Z,101854.76
2022-08-11T08:58:38.329Z,101855.61
2022-08-11T09:01:06.425Z,101850.15
2022-08-11T09:04:04.737Z,101851.39
2022-08-11T09:06:32.602Z,101848.02
2022-08-11T09:09:03.444Z,101856.75
2022-08-11T09:11:49.830Z,101847.92
2022-08-11T09:14:25.727Z,101842.46
2022-08-11T09:16:56.549Z,101847.43
2022-08-11T09:19:29.780Z,101849.04
2022-08-11T09:22:21.830Z,101850.21
2022-08-11T09:25:11.346Z,101845.96
2022-08-11T09:27:40.200Z,101842.95
2022-08-11T09:30:27.057Z,101842.50
2022-08-11T09:33:06.163Z,101843.64
2022-08-11T09:35:37.792Z,101839.85
2022-08-11T09:38:25.261Z,101839.33
2022-08-11T09:40:58.194Z,101839.72
2022-08-11T09:43:50.056Z,101840.83
2022-08-11T09:46:24.995Z,101843.22
2022-08-11T09:48:57.896Z,101837.40
2022-08-11T09:51:29.092Z,101834.39
2022-08-11T09:54:02.724Z,101834.75
2022-08-11T09:56:52.799Z,101838.70
2022-08-11T09:59:23.825Z,101834.32
2022-08-11T10:02:05.040Z,101836.32
2022-08-11T10:04:48.497Z,101833.63
2022-08-11T10:07:17.509Z,101837.72
2022-08-11T10:10:02.599Z,101834.59
2022-08-11T10:12:38.853Z,101833.34
2022-08-11T10:15:28.910Z,101827.42
2022-08-11T10:18:22.687Z,101838.24
2022-08-11T10:20:51.555Z,101835.53
2022-08-11T10:24:01.325Z,101830.66
2022-08-11T10:27:07.638Z,101832.16
2022-08-11T10:29:57.253Z,101826.77
2022-08-11T10:32:57.493Z,101824.77
2022-08-11T10:35:29.355Z,101825.92
2022-08-11T10:38:09.084Z,101828.44
2022-08-11T10:40:41.044Z,101823.53
2022-08-11T10:43:56.815Z,101822.23
2022-08-11T10:46:29.776Z,101825.49
2022-08-11T10:49:04.677Z,101824.12
2022-08-11T10:51:53.675Z,101818.73
2022-08-11T10:54:41.013Z,101814.57
2022-08-11T10:57:27.821Z,101823.40
2022-08-11T10:59:58.586Z,101815.49
2022-08-11T11:02:29.070Z,101808.91
2022-08-11T11:05:01.180Z,101816.54
2022-08-11T11:07:44.131Z,101811.92
2022-08-11T11:10:12.450Z,101809.84
2022-08-11T11:13:06.415Z,101815.85
2022-08-11T11:15:57.859Z,101809.60
2022-08-11T11:18:32.965Z,101810.81
2022-08-11T11:21:08.270Z,101800.68
2022-08-11T11:23:50.667Z,101804.96
2022-08-11T11:26:57.256Z,101800.91
2022-08-11T11:30:07.204Z,101791.16
2022-08-11T11:33:24.154Z,101798.62
2022-08-11T11:36:10.583Z,101787.50
2022-08-11T11:38:38.622Z,101792.66
2022-08-11T11:41:27.010Z,101785.73
2022-08-11T11:43:56.913Z,101787.34
2022-08-11T11:46:30.935Z,101779.42
2022-08-11T11:48:59.856Z,101785.05
2022-08-11T11:51:30.637Z,101779.13
2022-08-11T11:53:58.427Z,101774.81
2022-08-11T11:56:26.314Z,101770.11
2022-08-11T11:59:12.457Z,101777.01
2022-08-11T12:01:50.269Z,101770.56
2022-08-11T12:04:19.382Z,101767.23
2022-08-11T12:06:48.219Z,101766.05
2022-08-11T12:09:19.521Z,101766.31
2022-08-11T12:12:08.888Z,101766.38
2022-08-11T12:14:38.906Z,101755.88
2022-08-11T12:17:06.657Z,101759.28
2022-08-11T12:19:36.526Z,101761.15
2022-08-11T12:22:23.798Z,101755.49
2022-08-11T12:25:10.130Z,101747.71
2022-08-11T12:27:41.809Z,101749.28
2022-08-11T12:30:10.493Z,101743.85
2022-08-11T12:32:44.330Z,101732.67
2022-08-11T12:35:15.586Z,101731.85
2022-08-11T12:37:57.293Z,101734.80
2022-08-11T12:41:11.885Z,101735.25
2022-08-11T12:43:56.304Z,101730.45
2022-08-11T12:46:28.931Z,101726.36
2022-08-11T12:49:16.866Z,101719.82
2022-08-11T12:52:14.473Z,101716.62
2022-08-11T12:54:50.891Z,101718.91
2022-08-11T12:57:46.436Z,101714.49
2022-08-11T13:00:33.363Z,101711.81
2022-08-11T13:03:19.690Z,101710.86
2022-08-11T13:05:50.213Z,101710.30
2022-08-11T13:08:18.169Z,101718.91
2022-08-11T13:11:04.618Z,101703.47
2022-08-11T13:13:55.837Z,101706.91
2022-08-11T13:16:59.471Z,101710.66
2022-08-11T13:19:27.245Z,101698.99
2022-08-11T13:21:55.079Z,101700.14
2022-08-11T13:24:23.025Z,101698.30
2022-08-11T13:26:54.196Z,101696.28
2022-08-11T13:29:23.557Z,101688.59
2022-08-11T13:31:51.780Z,101689.22
2022-08-11T13:34:20.249Z,101687.55
2022-08-11T13:36:50.469Z,101685.65
2022-08-11T13:39:18.413Z,101684.93
2022-08-11T13:41:48.869Z,101680.59
2022-08-11T13:44:23.267Z,101675.29
2022-08-11T13:46:53.410Z,101668.45
2022-08-11T13:49:26.302Z,101673.42
2022-08-11T13:51:54.589Z,101670.61
2022-08-11T13:54:27.863Z,101670.80
2022-08-11T13:56:58.372Z,101656.32
2022-08-11T13:59:29.599Z,101660.45
2022-08-11T14:02:28.175Z,101661.26
2022-08-11T14:04:56.642Z,101657.70
2022-08-11T14:07:33.409Z,101653.09
2022-08-11T14:10:01.350Z,101640.47
2022-08-11T14:12:49.791Z,101639.84
2022-08-11T14:15:23.732Z,101630.79
2022-08-11T14:18:17.711Z,101633.86
2022-08-11T14:21:04.159Z,101631.15
2022-08-11T14:23:46.151Z,101629.74
2022-08-11T14:26:29.287Z,101632.88
2022-08-11T14:29:17.705Z,101635.89
2022-08-11T14:31:53.200Z,101636.22
2022-08-11T14:34:23.733Z,101632.78
2022-08-11T14:36:53.949Z,101634.38
2022-08-11T14:39:37.211Z,101636.80
2022-08-11T14:42:27.075Z,101627.35
2022-08-11T14:45:22.631Z,101622.41
2022-08-11T14:47:55.782Z,101620.49
2022-08-11T14:50:27.234Z,101616.17
2022-08-11T14:52:59.786Z,101621.34
2022-08-11T14:55:50.176Z,101622.68
2022-08-11T14:58:19.713Z,101622.16
2022-08-11T15:00:52.665Z,101610.19
2022-08-11T15:03:28.182Z,101612.19
2022-08-11T15:06:01.413Z,101612.51
2022-08-11T15:08:52.856Z,101606.59
2022-08-11T15:11:40.721Z,101608.88
2022-08-11T15:14:09.967Z,101601.03
2022-08-11T15:17:03.522Z,101606.98
2022-08-11T15:19:40.212Z,101605.05
2022-08-11T15:22:31.011Z,101599.17
2022-08-11T15:25:00.311Z,101603.09
2022-08-11T15:27:51.729Z,101600.77
2022-08-11T15:30:39.067Z,101594.70
2022-08-11T15:33:26.856Z,101599.89
2022-08-11T15:36:13.845Z,101591.20
2022-08-11T15:38:46.477Z,101595.80
2022-08-11T15:41:36.957Z,101594.13
2022-08-11T15:44:44.541Z,101585.80
2022-08-11T15:47:15.557Z,101584.59
2022-08-11T15:50:12.000Z,101578.02
2022-08-11T15:52:34.185Z,101573.93
2022-08-11T15:55:08.661Z,101576.61
2022-08-11T15:57:58.277Z,101577.04
2022-08-11T16:00:44.695Z,101581.25
2022-08-11T16:03:54.408Z,101569.13
2022-08-11T16:06:24.343Z,101575.07
2022-08-11T16:08:53.088Z,101567.98
2022-08-11T16:11:24.052Z,101569.71
2022-08-11T16:14:13.079Z,101568.14
2022-08-11T16:16:40.973Z,101561.51
2022-08-11T16:19:11.687Z,101560.33
2022-08-11T16:21:41.611Z,101553.23
2022-08-11T16:27:01.641Z,101553.76
2022-08-11T16:27:17.256Z,101549.54
2022-08-11T16:29:51.351Z,101544.57
2022-08-11T16:32:24.590Z,101535.77
2022-08-11T16:35:37.295Z,101540.41
2022-08-11T16:38:34.540Z,101539.63
2022-08-11T16:41:09.531Z,101534.66
2022-08-11T16:44:06.842Z,101529.27
2022-08-11T16:47:00.699Z,101529.63
2022-08-11T16:49:52.763Z,101525.51
2022-08-11T16:52:21.358Z,101523.02
2022-08-11T16:54:52.858Z,101528.13
2022-08-11T16:58:04.048Z,101522.34
2022-08-11T17:00:32.101Z,101524.39
2022-08-11T17:03:18.652Z,101524.88
2022-08-11T17:06:10.455Z,101525.31
2022-08-11T17:09:11.701Z,101522.01
2022-08-11T17:12:06.079Z,101519.98
2022-08-11T17:14:38.672Z,101522.50
2022-08-11T17:17:13.828Z,101524.63
2022-08-11T17:20:39.981Z,101528.52
2022-08-11T17:22:59.659Z,101526.48
2022-08-11T17:26:03.543Z,101525.70
2022-08-11T17:28:21.516Z,101521.26
2022-08-11T17:31:19.898Z,101524.23
2022-08-11T17:34:15.085Z,101529.27
2022-08-11T17:36:45.823Z,101531.03
2022-08-11T17:39:14.219Z,101529.82
2022-08-11T17:42:00.637Z,101526.03
2022-08-11T17:44:50.350Z,101531.95
2022-08-11T17:47:42.843Z,101536.55
2022-08-11T17:50:17.412Z,101522.79
2022-08-11T17:53:04.929Z,101532.08
2022-08-11T17:55:53.535Z,101533.78
2022-08-11T17:58:48.045Z,101537.60
2022-08-11T18:01:16.577Z,101526.42
2022-08-11T18:03:53.240Z,101531.91
2022-08-11T18:06:34.050Z,101536.16
2022-08-11T18:09:25.422Z,101538.68
2022-08-11T18:12:12.917Z,101545.48
2022-08-11T18:15:01.737Z,101540.52
2022-08-11T18:17:48.242Z,101540.19
2022-08-11T18:20:34.780Z,101535.64
2022-08-11T18:23:40.530Z,101541.56
2022-08-11T18:26:31.228Z,101534.92
2022-08-11T18:29:17.587Z,101549.67
2022-08-11T18:32:07.515Z,101544.70
2022-08-11T18:35:00.425Z,101548.03
2022-08-11T18:37:48.608Z,101555.29
2022-08-11T18:40:39.840Z,101548.27
2022-08-11T18:43:27.873Z,101547.91
2022-08-11T18:46:21.370Z,101553.43
2022-08-11T18:50:03.777Z,101556.44
2022-08-11T18:52:40.678Z,101556.11
2022-08-11T18:55:35.086Z,101557.02
2022-08-11T18:58:24.000Z,101563.30
2022-08-11T19:01:16.035Z,101557.09
2022-08-11T19:04:11.283Z,101564.71
2022-08-11T19:07:09.937Z,101563.50
2022-08-11T19:09:58.783Z,101573.51
2022-08-11T19:12:56.823Z,101580.66
2022-08-11T19:15:43.355Z,101581.12
2022-08-11T19:18:35.096Z,101578.24
2022-08-11T19:21:24.790Z,101575.43
2022-08-11T19:24:14.561Z,101585.05
2022-08-11T19:27:00.939Z,101586.78
2022-08-11T19:30:07.888Z,101581.81
2022-08-11T19:33:02.049Z,101588.12
2022-08-11T19:35:50.943Z,101593.19
2022-08-11T19:38:38.377Z,101589.49
2022-08-11T19:41:56.277Z,101592.47
2022-08-11T19:44:31.292Z,101596.23
2022-08-11T19:47:20.723Z,101593.74
2022-08-11T19:50:07.320Z,101595.87
2022-08-11T19:52:53.587Z,101601.75
2022-08-11T19:55:40.270Z,101599.66
2022-08-11T19:58:30.179Z,101603.03
2022-08-11T20:01:16.959Z,101606.82
2022-08-11T20:04:06.590Z,101605.58
2022-08-11T20:06:53.071Z,101613.91
2022-08-11T20:10:04.999Z,101597.24
2022-08-11T20:12:49.203Z,101604.77
2022-08-11T20:15:38.767Z,101603.95
2022-08-11T20:18:29.421Z,101608.52
2022-08-11T20:21:25.931Z,101606.89
2022-08-11T20:24:20.841Z,101616.04
2022-08-11T20:27:18.544Z,101620.62
2022-08-11T20:30:13.608Z,101621.05
2022-08-11T20:33:00.984Z,101623.98
2022-08-11T20:35:49.770Z,101627.71
2022-08-11T20:38:42.096Z,101621.90
2022-08-11T20:41:31.695Z,101628.56
2022-08-11T20:44:38.816Z,101629.41
2022-08-11T20:47:25.367Z,101626.51
2022-08-11T20:50:19.299Z,101633.60
2022-08-11T20:53:06.363Z,101635.23
2022-08-11T20:55:54.854Z,101646.09
2022-08-11T20:59:13.788Z,101637.33
2022-08-11T21:01:56.299Z,101651.91
2022-08-11T21:04:54.004Z,101643.60
2022-08-11T21:07:50.282Z,101648.18
2022-08-11T21:10:51.579Z,101649.42
2022-08-11T21:13:42.981Z,101649.85
2022-08-11T21:16:39.614Z,101646.94
2022-08-11T21:20:00.453Z,101651.91
2022-08-11T21:22:59.547Z,101643.60
2022-08-11T21:26:03.262Z,101647.73
2022-08-11T21:28:54.162Z,101653.55
2022-08-11T21:31:43.998Z,101651.45
2022-08-11T21:34:31.271Z,101650.21
2022-08-11T21:37:19.081Z,101653.12
2022-08-11T21:40:07.150Z,101656.03
2022-08-11T21:42:54.648Z,101647.70
2022-08-11T21:45:41.468Z,101641.48
2022-08-11T21:48:31.844Z,101650.18
2022-08-11T21:51:18.659Z,101651.88
2022-08-11T21:54:08.371Z,101647.70
2022-08-11T21:56:57.402Z,101646.02
2022-08-11T21:59:51.587Z,101655.18
2022-08-11T22:02:38.077Z,101649.36
2022-08-11T22:05:25.292Z,101643.93
2022-08-11T22:08:11.871Z,101644.36
2022-08-11T22:10:58.294Z,101646.02
2022-08-11T22:14:06.204Z,101646.84
2022-08-11T22:16:50.828Z,101652.59
2022-08-11T22:19:38.019Z,101645.53
2022-08-11T22:22:26.881Z,101648.87
2022-08-11T22:25:16.527Z,101654.23
2022-08-11T22:28:04.997Z,101643.84
2022-08-11T22:30:51.936Z,101649.20
2022-08-11T22:33:42.646Z,101644.20
2022-08-11T22:36:45.375Z,101659.13
2022-08-11T22:39:31.710Z,101659.92
2022-08-11T22:42:33.205Z,101651.59
2022-08-11T22:45:20.652Z,101655.70
2022-08-11T22:48:07.400Z,101650.70
2022-08-11T22:50:54.141Z,101656.48
2022-08-11T22:53:58.377Z,101651.48
2022-08-11T22:56:48.716Z,101656.48
2022-08-11T22:59:35.939Z,101661.00
2022-08-11T23:02:23.141Z,101655.57
2022-08-11T23:05:11.700Z,101659.30
2022-08-11T23:07:58.024Z,101656.39
2022-08-11T23:10:44.287Z,101657.66
2022-08-11T23:13:30.902Z,101660.58
2022-08-11T23:16:19.759Z,101652.30
2022-08-11T23:19:06.171Z,101652.76
2022-08-11T23:21:52.714Z,101649.03
2022-08-11T23:24:40.042Z,101648.58
2022-08-11T23:27:27.362Z,101650.66
2022-08-11T23:30:14.608Z,101648.22
2022-08-11T23:33:05.114Z,101651.09
2022-08-11T23:35:55.442Z,101642.36
2022-08-11T23:38:45.582Z,101653.94
2022-08-11T23:41:33.972Z,101644.00
2022-08-11T23:44:24.043Z,101640.63
2022-08-11T23:47:12.075Z,101634.84
2022-08-11T23:49:58.638Z,101642.76
2022-08-11T23:52:45.550Z,101625.75
2022-08-11T23:55:31.779Z,101629.48
2022-08-11T23:58:18.041Z,101631.54
